sensor_id;sensor_type;location;lat;lon;timestamp;temperature;humidity
51739;DHT22;37815;52.692;6.226;2024-03-08T00:00:03;8.20;99.90
51739;DHT22;37815;52.692;6.226;2024-03-08T00:05:09;8.20;99.90
51739;DHT22;37815;52.692;6.226;2024-03-08T00:10:12;8.20;99.90
51739;DHT22;37815;52.692;6.226;2024-03-08T00:15:14;8.20;99.90
51739;DHT22;37815;52.692;6.226;2024-03-08T00:20:16;8.20;99.90
51739;DHT22;37815;52.692;6.226;2024-03-08T00:25:18;8.20;99.90
51739;DHT22;37815;52.692;6.226;2024-03-08T00:30:18;8.20;99.90
51739;DHT22;37815;52.692;6.226;2024-03-08T00:35:19;8.10;99.90
51739;DHT22;37815;52.692;6.226;2024-03-08T00:40:20;8.10;99.90
51739;DHT22;37815;52.692;6.226;2024-03-08T00:45:21;8.10;99.90
51739;DHT22;37815;52.692;6.226;2024-03-08T00:50:23;8.10;99.90
51739;DHT22;37815;52.692;6.226;2024-03-08T00:55:24;9.20;99.90
51739;DHT22;37815;52.692;6.226;2024-03-08T01:00:25;8.10;99.90
51739;DHT22;37815;52.692;6.226;2024-03-08T01:05:26;8.10;99.90
51739;DHT22;37815;52.692;6.226;2024-03-08T01:10:26;8.10;99.90
51739;DHT22;37815;52.692;6.226;2024-03-08T01:15:27;8.10;99.90
51739;DHT22;37815;52.692;6.226;2024-03-08T01:20:28;8.10;99.90
51739;DHT22;37815;52.692;6.226;2024-03-08T01:25:28;8.10;99.90
51739;DHT22;37815;52.692;6.226;2024-03-08T01:30:29;8.00;99.90
51739;DHT22;37815;52.692;6.226;2024-03-08T01:35:29;8.00;99.90
51739;DHT22;37815;52.692;6.226;2024-03-08T01:40:31;8.00;99.90
51739;DHT22;37815;52.692;6.226;2024-03-08T01:45:31;8.00;99.90
51739;DHT22;37815;52.692;6.226;2024-03-08T01:50:34;8.00;99.90
51739;DHT22;37815;52.692;6.226;2024-03-08T01:55:36;8.00;99.90
51739;DHT22;37815;52.692;6.226;2024-03-08T02:00:39;8.00;99.90
51739;DHT22;37815;52.692;6.226;2024-03-08T02:05:41;8.00;99.90
51739;DHT22;37815;52.692;6.226;2024-03-08T02:10:43;7.90;99.90
51739;DHT22;37815;52.692;6.226;2024-03-08T02:15:54;7.90;99.90
51739;DHT22;37815;52.692;6.226;2024-03-08T02:20:56;7.90;99.90
51739;DHT22;37815;52.692;6.226;2024-03-08T02:25:57;7.90;99.90
51739;DHT22;37815;52.692;6.226;2024-03-08T02:30:58;8.00;99.90
51739;DHT22;37815;52.692;6.226;2024-03-08T02:35:58;7.20;99.90
51739;DHT22;37815;52.692;6.226;2024-03-08T02:40:59;7.80;99.90
51739;DHT22;37815;52.692;6.226;2024-03-08T02:45:59;7.80;99.90
51739;DHT22;37815;52.692;6.226;2024-03-08T02:51:00;7.80;99.90
51739;DHT22;37815;52.692;6.226;2024-03-08T02:56:02;7.80;99.90
51739;DHT22;37815;52.692;6.226;2024-03-08T03:01:03;7.80;99.90
51739;DHT22;37815;52.692;6.226;2024-03-08T03:06:03;7.80;99.90
51739;DHT22;37815;52.692;6.226;2024-03-08T03:11:04;7.70;99.90
51739;DHT22;37815;52.692;6.226;2024-03-08T03:16:05;7.70;99.90
51739;DHT22;37815;52.692;6.226;2024-03-08T03:21:06;7.70;99.90
51739;DHT22;37815;52.692;6.226;2024-03-08T03:26:08;7.70;99.90
51739;DHT22;37815;52.692;6.226;2024-03-08T03:31:11;7.70;99.90
51739;DHT22;37815;52.692;6.226;2024-03-08T03:36:14;7.70;99.90
51739;DHT22;37815;52.692;6.226;2024-03-08T03:41:16;7.60;99.90
51739;DHT22;37815;52.692;6.226;2024-03-08T03:46:17;7.60;99.90
51739;DHT22;37815;52.692;6.226;2024-03-08T03:51:18;7.60;99.90
51739;DHT22;37815;52.692;6.226;2024-03-08T03:56:19;7.60;99.90
51739;DHT22;37815;52.692;6.226;2024-03-08T04:01:25;7.60;99.90
51739;DHT22;37815;52.692;6.226;2024-03-08T04:06:25;7.60;99.90
51739;DHT22;37815;52.692;6.226;2024-03-08T04:11:26;7.60;99.90
51739;DHT22;37815;52.692;6.226;2024-03-08T04:16:26;7.60;99.90
51739;DHT22;37815;52.692;6.226;2024-03-08T04:21:30;7.50;99.90
51739;DHT22;37815;52.692;6.226;2024-03-08T04:26:30;7.50;99.90
51739;DHT22;37815;52.692;6.226;2024-03-08T04:31:31;7.50;99.90
51739;DHT22;37815;52.692;6.226;2024-03-08T04:36:32;7.50;99.90
51739;DHT22;37815;52.692;6.226;2024-03-08T04:41:34;7.50;99.90
51739;DHT22;37815;52.692;6.226;2024-03-08T04:46:35;7.50;99.90
51739;DHT22;37815;52.692;6.226;2024-03-08T04:51:35;7.50;99.90
51739;DHT22;37815;52.692;6.226;2024-03-08T04:56:36;7.50;99.90
51739;DHT22;37815;52.692;6.226;2024-03-08T05:01:36;7.40;99.90
51739;DHT22;37815;52.692;6.226;2024-03-08T05:06:38;7.40;99.90
51739;DHT22;37815;52.692;6.226;2024-03-08T05:11:43;7.40;99.90
51739;DHT22;37815;52.692;6.226;2024-03-08T05:16:44;7.40;99.90
51739;DHT22;37815;52.692;6.226;2024-03-08T05:21:49;8.50;99.90
51739;DHT22;37815;52.692;6.226;2024-03-08T05:26:50;7.40;99.90
51739;DHT22;37815;52.692;6.226;2024-03-08T05:31:51;7.40;99.90
51739;DHT22;37815;52.692;6.226;2024-03-08T05:36:52;7.40;99.90
51739;DHT22;37815;52.692;6.226;2024-03-08T05:41:55;7.40;99.90
51739;DHT22;37815;52.692;6.226;2024-03-08T05:46:56;7.30;99.90
51739;DHT22;37815;52.692;6.226;2024-03-08T05:51:56;7.30;99.90
51739;DHT22;37815;52.692;6.226;2024-03-08T05:56:57;7.30;99.90
51739;DHT22;37815;52.692;6.226;2024-03-08T06:01:58;7.20;99.90
51739;DHT22;37815;52.692;6.226;2024-03-08T06:06:58;7.20;99.90
51739;DHT22;37815;52.692;6.226;2024-03-08T06:11:59;7.20;99.90
51739;DHT22;37815;52.692;6.226;2024-03-08T06:16:59;7.20;99.90
51739;DHT22;37815;52.692;6.226;2024-03-08T06:22:00;7.20;99.90
51739;DHT22;37815;52.692;6.226;2024-03-08T06:27:05;7.30;99.90
51739;DHT22;37815;52.692;6.226;2024-03-08T06:32:06;7.20;99.90
51739;DHT22;37815;52.692;6.226;2024-03-08T06:37:07;7.20;99.90
51739;DHT22;37815;52.692;6.226;2024-03-08T06:42:07;7.20;99.90
51739;DHT22;37815;52.692;6.226;2024-03-08T06:47:09;7.20;99.90
51739;DHT22;37815;52.692;6.226;2024-03-08T06:52:10;7.20;99.90
51739;DHT22;37815;52.692;6.226;2024-03-08T06:57:12;7.20;99.90
51739;DHT22;37815;52.692;6.226;2024-03-08T07:02:14;7.20;99.90
51739;DHT22;37815;52.692;6.226;2024-03-08T07:07:14;7.20;99.90
51739;DHT22;37815;52.692;6.226;2024-03-08T07:12:15;7.20;99.90
51739;DHT22;37815;52.692;6.226;2024-03-08T07:17:16;7.20;99.90
51739;DHT22;37815;52.692;6.226;2024-03-08T07:22:17;7.20;99.90
51739;DHT22;37815;52.692;6.226;2024-03-08T07:27:17;7.20;99.90
51739;DHT22;37815;52.692;6.226;2024-03-08T07:32:18;7.20;99.90
51739;DHT22;37815;52.692;6.226;2024-03-08T07:37:22;7.10;99.90
51739;DHT22;37815;52.692;6.226;2024-03-08T07:42:23;7.20;99.90
51739;DHT22;37815;52.692;6.226;2024-03-08T07:47:24;7.20;99.90
51739;DHT22;37815;52.692;6.226;2024-03-08T07:52:26;7.20;99.90
51739;DHT22;37815;52.692;6.226;2024-03-08T07:57:27;7.40;99.90
51739;DHT22;37815;52.692;6.226;2024-03-08T08:02:27;7.30;99.90
51739;DHT22;37815;52.692;6.226;2024-03-08T08:07:28;7.40;99.90
51739;DHT22;37815;52.692;6.226;2024-03-08T08:12:28;7.40;99.90
51739;DHT22;37815;52.692;6.226;2024-03-08T08:17:29;7.50;99.90
51739;DHT22;37815;52.692;6.226;2024-03-08T08:22:30;7.50;99.90
51739;DHT22;37815;52.692;6.226;2024-03-08T08:27:30;7.50;99.90
51739;DHT22;37815;52.692;6.226;2024-03-08T08:32:31;7.60;99.90
51739;DHT22;37815;52.692;6.226;2024-03-08T08:37:32;7.60;99.90
51739;DHT22;37815;52.692;6.226;2024-03-08T08:42:34;7.70;99.90
51739;DHT22;37815;52.692;6.226;2024-03-08T08:47:37;7.70;99.90
51739;DHT22;37815;52.692;6.226;2024-03-08T08:52:39;7.80;99.90
51739;DHT22;37815;52.692;6.226;2024-03-08T08:57:40;7.80;99.90
51739;DHT22;37815;52.692;6.226;2024-03-08T09:02:42;7.80;99.90
51739;DHT22;37815;52.692;6.226;2024-03-08T09:07:43;7.80;99.90
51739;DHT22;37815;52.692;6.226;2024-03-08T09:12:45;7.90;99.90
51739;DHT22;37815;52.692;6.226;2024-03-08T09:17:46;7.90;99.90
51739;DHT22;37815;52.692;6.226;2024-03-08T09:22:46;7.90;99.90
51739;DHT22;37815;52.692;6.226;2024-03-08T09:27:47;7.90;99.90
51739;DHT22;37815;52.692;6.226;2024-03-08T09:32:48;7.90;99.90
51739;DHT22;37815;52.692;6.226;2024-03-08T09:37:51;7.90;99.90
51739;DHT22;37815;52.692;6.226;2024-03-08T09:42:52;8.00;99.90
51739;DHT22;37815;52.692;6.226;2024-03-08T09:47:52;8.00;99.90
51739;DHT22;37815;52.692;6.226;2024-03-08T09:52:55;8.10;99.90
51739;DHT22;37815;52.692;6.226;2024-03-08T09:57:58;8.10;99.90
51739;DHT22;37815;52.692;6.226;2024-03-08T10:03:36;8.20;99.90
51739;DHT22;37815;52.692;6.226;2024-03-08T10:08:37;8.20;99.90
51739;DHT22;37815;52.692;6.226;2024-03-08T10:13:37;8.30;99.90
51739;DHT22;37815;52.692;6.226;2024-03-08T10:18:38;8.30;99.90
51739;DHT22;37815;52.692;6.226;2024-03-08T10:23:39;8.40;99.90
51739;DHT22;37815;52.692;6.226;2024-03-08T10:28:47;8.40;99.90
51739;DHT22;37815;52.692;6.226;2024-03-08T10:33:48;8.50;99.90
51739;DHT22;37815;52.692;6.226;2024-03-08T10:38:51;8.50;99.90
51739;DHT22;37815;52.692;6.226;2024-03-08T10:44:20;8.50;99.90
51739;DHT22;37815;52.692;6.226;2024-03-08T10:49:32;8.60;99.90
51739;DHT22;37815;52.692;6.226;2024-03-08T10:54:37;8.70;99.90
51739;DHT22;37815;52.692;6.226;2024-03-08T10:59:40;8.70;99.90
51739;DHT22;37815;52.692;6.226;2024-03-08T11:04:46;10.00;99.90
51739;DHT22;37815;52.692;6.226;2024-03-08T11:09:50;8.80;99.90
51739;DHT22;37815;52.692;6.226;2024-03-08T11:14:54;8.80;99.90
51739;DHT22;37815;52.692;6.226;2024-03-08T11:19:56;8.90;99.90
51739;DHT22;37815;52.692;6.226;2024-03-08T11:25:04;8.90;99.90
51739;DHT22;37815;52.692;6.226;2024-03-08T11:30:10;9.00;99.90
51739;DHT22;37815;52.692;6.226;2024-03-08T11:35:24;9.00;99.90
51739;DHT22;37815;52.692;6.226;2024-03-08T11:40:25;9.10;99.90
51739;DHT22;37815;52.692;6.226;2024-03-08T11:45:26;9.10;99.90
51739;DHT22;37815;52.692;6.226;2024-03-08T11:50:27;9.20;99.90
51739;DHT22;37815;52.692;6.226;2024-03-08T11:55:27;9.20;99.90
51739;DHT22;37815;52.692;6.226;2024-03-08T12:00:29;9.20;99.90
51739;DHT22;37815;52.692;6.226;2024-03-08T12:05:35;9.30;99.90
51739;DHT22;37815;52.692;6.226;2024-03-08T12:10:36;9.30;99.90
51739;DHT22;37815;52.692;6.226;2024-03-08T12:15:36;9.90;99.90
51739;DHT22;37815;52.692;6.226;2024-03-08T12:20:37;9.40;99.90
51739;DHT22;37815;52.692;6.226;2024-03-08T12:25:39;9.40;99.90
51739;DHT22;37815;52.692;6.226;2024-03-08T12:30:50;9.40;99.90
51739;DHT22;37815;52.692;6.226;2024-03-08T12:35:54;9.50;99.90
51739;DHT22;37815;52.692;6.226;2024-03-08T12:40:59;9.50;99.90
51739;DHT22;37815;52.692;6.226;2024-03-08T12:46:00;9.70;99.90
51739;DHT22;37815;52.692;6.226;2024-03-08T12:51:01;9.60;99.90
51739;DHT22;37815;52.692;6.226;2024-03-08T12:56:02;9.60;99.90
51739;DHT22;37815;52.692;6.226;2024-03-08T13:01:05;9.60;99.90
51739;DHT22;37815;52.692;6.226;2024-03-08T13:06:08;9.70;99.90
51739;DHT22;37815;52.692;6.226;2024-03-08T13:11:08;9.60;99.90
51739;DHT22;37815;52.692;6.226;2024-03-08T13:16:12;9.70;99.90
51739;DHT22;37815;52.692;6.226;2024-03-08T13:21:15;9.80;99.90
51739;DHT22;37815;52.692;6.226;2024-03-08T13:26:19;9.80;99.90
51739;DHT22;37815;52.692;6.226;2024-03-08T13:31:20;9.80;99.90
51739;DHT22;37815;52.692;6.226;2024-03-08T13:36:21;9.80;99.90
51739;DHT22;37815;52.692;6.226;2024-03-08T13:41:21;9.80;99.90
51739;DHT22;37815;52.692;6.226;2024-03-08T13:46:25;9.90;99.90
51739;DHT22;37815;52.692;6.226;2024-03-08T13:51:26;10.00;99.90
51739;DHT22;37815;52.692;6.226;2024-03-08T13:56:27;10.10;99.90
51739;DHT22;37815;52.692;6.226;2024-03-08T14:01:31;10.10;99.90
51739;DHT22;37815;52.692;6.226;2024-03-08T14:06:32;10.10;99.90
51739;DHT22;37815;52.692;6.226;2024-03-08T14:11:33;10.20;99.90
51739;DHT22;37815;52.692;6.226;2024-03-08T14:16:33;10.20;99.90
51739;DHT22;37815;52.692;6.226;2024-03-08T14:21:36;10.30;99.90
51739;DHT22;37815;52.692;6.226;2024-03-08T14:26:39;10.30;99.90
51739;DHT22;37815;52.692;6.226;2024-03-08T14:31:40;10.40;99.90
51739;DHT22;37815;52.692;6.226;2024-03-08T14:36:41;11.50;99.90
51739;DHT22;37815;52.692;6.226;2024-03-08T14:41:42;11.30;99.90
51739;DHT22;37815;52.692;6.226;2024-03-08T14:46:43;11.40;99.90
51739;DHT22;37815;52.692;6.226;2024-03-08T14:51:44;11.30;99.90
51739;DHT22;37815;52.692;6.226;2024-03-08T14:56:45;11.20;99.90
51739;DHT22;37815;52.692;6.226;2024-03-08T15:01:46;11.30;99.90
51739;DHT22;37815;52.692;6.226;2024-03-08T15:06:47;11.20;99.90
51739;DHT22;37815;52.692;6.226;2024-03-08T15:11:48;11.30;99.90
51739;DHT22;37815;52.692;6.226;2024-03-08T15:16:50;11.30;99.90
51739;DHT22;37815;52.692;6.226;2024-03-08T15:21:51;11.00;99.60
51739;DHT22;37815;52.692;6.226;2024-03-08T15:26:56;11.00;99.90
51739;DHT22;37815;52.692;6.226;2024-03-08T15:31:57;11.10;99.90
51739;DHT22;37815;52.692;6.226;2024-03-08T15:36:58;11.20;99.90
51739;DHT22;37815;52.692;6.226;2024-03-08T15:42:02;11.10;99.90
51739;DHT22;37815;52.692;6.226;2024-03-08T15:47:03;11.10;99.90
51739;DHT22;37815;52.692;6.226;2024-03-08T15:52:04;11.10;99.90
51739;DHT22;37815;52.692;6.226;2024-03-08T15:57:06;11.10;99.90
51739;DHT22;37815;52.692;6.226;2024-03-08T16:02:13;11.10;99.90
51739;DHT22;37815;52.692;6.226;2024-03-08T16:07:13;11.10;99.90
51739;DHT22;37815;52.692;6.226;2024-03-08T16:12:14;11.10;99.90
51739;DHT22;37815;52.692;6.226;2024-03-08T16:17:16;11.00;99.90
51739;DHT22;37815;52.692;6.226;2024-03-08T16:22:17;11.00;99.90
51739;DHT22;37815;52.692;6.226;2024-03-08T16:27:18;10.90;99.90
51739;DHT22;37815;52.692;6.226;2024-03-08T16:32:19;10.90;99.90
51739;DHT22;37815;52.692;6.226;2024-03-08T16:37:20;10.90;99.90
51739;DHT22;37815;52.692;6.226;2024-03-08T16:42:22;10.90;99.90
51739;DHT22;37815;52.692;6.226;2024-03-08T16:47:23;10.80;99.90
51739;DHT22;37815;52.692;6.226;2024-03-08T16:52:24;10.80;99.90
51739;DHT22;37815;52.692;6.226;2024-03-08T16:57:26;10.80;99.90
51739;DHT22;37815;52.692;6.226;2024-03-08T17:02:27;10.80;99.90
51739;DHT22;37815;52.692;6.226;2024-03-08T17:07:27;10.70;99.90
51739;DHT22;37815;52.692;6.226;2024-03-08T17:12:28;10.70;99.90
51739;DHT22;37815;52.692;6.226;2024-03-08T17:17:29;10.70;99.90
51739;DHT22;37815;52.692;6.226;2024-03-08T17:22:31;10.60;99.90
51739;DHT22;37815;52.692;6.226;2024-03-08T17:27:31;10.60;99.90
51739;DHT22;37815;52.692;6.226;2024-03-08T17:32:32;10.60;99.90
51739;DHT22;37815;52.692;6.226;2024-03-08T17:37:33;10.50;99.90
51739;DHT22;37815;52.692;6.226;2024-03-08T17:42:34;10.50;99.90
51739;DHT22;37815;52.692;6.226;2024-03-08T17:47:34;10.50;99.90
51739;DHT22;37815;52.692;6.226;2024-03-08T17:52:39;10.50;99.90
51739;DHT22;37815;52.692;6.226;2024-03-08T17:57:47;10.40;99.90
51739;DHT22;37815;52.692;6.226;2024-03-08T18:02:48;10.40;99.90
51739;DHT22;37815;52.692;6.226;2024-03-08T18:07:52;10.40;99.90
51739;DHT22;37815;52.692;6.226;2024-03-08T18:12:54;10.30;99.90
51739;DHT22;37815;52.692;6.226;2024-03-08T18:17:59;10.30;99.90
51739;DHT22;37815;52.692;6.226;2024-03-08T18:23:03;10.30;99.90
51739;DHT22;37815;52.692;6.226;2024-03-08T18:28:05;10.00;99.90
51739;DHT22;37815;52.692;6.226;2024-03-08T18:33:07;10.00;99.90
51739;DHT22;37815;52.692;6.226;2024-03-08T18:38:08;9.90;99.90
51739;DHT22;37815;52.692;6.226;2024-03-08T18:43:09;9.90;99.90
51739;DHT22;37815;52.692;6.226;2024-03-08T18:48:10;10.00;99.90
51739;DHT22;37815;52.692;6.226;2024-03-08T18:53:11;10.00;99.90
51739;DHT22;37815;52.692;6.226;2024-03-08T18:58:12;9.90;99.90
51739;DHT22;37815;52.692;6.226;2024-03-08T19:03:19;9.90;99.90
51739;DHT22;37815;52.692;6.226;2024-03-08T19:08:19;9.90;99.90
51739;DHT22;37815;52.692;6.226;2024-03-08T19:13:23;9.90;99.90
51739;DHT22;37815;52.692;6.226;2024-03-08T19:18:23;9.90;99.90
51739;DHT22;37815;52.692;6.226;2024-03-08T19:23:27;9.90;99.90
51739;DHT22;37815;52.692;6.226;2024-03-08T19:28:28;9.90;99.90
51739;DHT22;37815;52.692;6.226;2024-03-08T19:33:28;9.80;99.90
51739;DHT22;37815;52.692;6.226;2024-03-08T19:38:29;9.80;99.90
51739;DHT22;37815;52.692;6.226;2024-03-08T19:43:31;9.80;99.90
51739;DHT22;37815;52.692;6.226;2024-03-08T19:48:33;9.80;99.90
51739;DHT22;37815;52.692;6.226;2024-03-08T19:53:33;9.80;99.90
51739;DHT22;37815;52.692;6.226;2024-03-08T19:58:34;9.80;99.90
51739;DHT22;37815;52.692;6.226;2024-03-08T20:03:35;9.70;99.90
51739;DHT22;37815;52.692;6.226;2024-03-08T20:08:36;9.70;99.90
51739;DHT22;37815;52.692;6.226;2024-03-08T20:13:41;9.70;99.90
51739;DHT22;37815;52.692;6.226;2024-03-08T20:18:43;9.70;99.90
51739;DHT22;37815;52.692;6.226;2024-03-08T20:23:44;9.70;99.90
51739;DHT22;37815;52.692;6.226;2024-03-08T20:28:44;9.60;99.90
51739;DHT22;37815;52.692;6.226;2024-03-08T20:33:45;9.60;99.90
51739;DHT22;37815;52.692;6.226;2024-03-08T20:38:47;9.60;99.90
51739;DHT22;37815;52.692;6.226;2024-03-08T20:43:47;9.60;99.90
51739;DHT22;37815;52.692;6.226;2024-03-08T20:48:48;9.60;99.90
51739;DHT22;37815;52.692;6.226;2024-03-08T20:53:49;9.50;99.90
51739;DHT22;37815;52.692;6.226;2024-03-08T20:58:50;9.50;99.90
51739;DHT22;37815;52.692;6.226;2024-03-08T21:03:52;9.50;99.90
51739;DHT22;37815;52.692;6.226;2024-03-08T21:08:53;9.50;99.90
51739;DHT22;37815;52.692;6.226;2024-03-08T21:13:53;9.50;99.90
51739;DHT22;37815;52.692;6.226;2024-03-08T21:18:54;9.50;99.90
51739;DHT22;37815;52.692;6.226;2024-03-08T21:23:56;9.40;99.90
51739;DHT22;37815;52.692;6.226;2024-03-08T21:28:57;9.40;99.90
51739;DHT22;37815;52.692;6.226;2024-03-08T21:33:57;9.40;99.90
51739;DHT22;37815;52.692;6.226;2024-03-08T21:38:58;9.40;99.90
51739;DHT22;37815;52.692;6.226;2024-03-08T21:43:58;9.40;99.90
51739;DHT22;37815;52.692;6.226;2024-03-08T21:49:00;9.40;99.90
51739;DHT22;37815;52.692;6.226;2024-03-08T21:54:01;9.30;99.90
51739;DHT22;37815;52.692;6.226;2024-03-08T21:59:01;9.30;99.90
51739;DHT22;37815;52.692;6.226;2024-03-08T22:04:04;9.30;99.90
51739;DHT22;37815;52.692;6.226;2024-03-08T22:09:05;9.30;99.90
51739;DHT22;37815;52.692;6.226;2024-03-08T22:14:06;9.30;99.90
51739;DHT22;37815;52.692;6.226;2024-03-08T22:19:08;9.20;99.90
51739;DHT22;37815;52.692;6.226;2024-03-08T22:24:27;9.20;99.90
51739;DHT22;37815;52.692;6.226;2024-03-08T22:29:28;9.30;99.90
51739;DHT22;37815;52.692;6.226;2024-03-08T22:34:28;9.20;99.90
51739;DHT22;37815;52.692;6.226;2024-03-08T22:39:29;9.20;99.90
51739;DHT22;37815;52.692;6.226;2024-03-08T22:44:31;9.20;99.90
51739;DHT22;37815;52.692;6.226;2024-03-08T22:49:33;9.20;99.90
51739;DHT22;37815;52.692;6.226;2024-03-08T22:54:34;9.10;99.90
51739;DHT22;37815;52.692;6.226;2024-03-08T22:59:35;9.10;99.90
51739;DHT22;37815;52.692;6.226;2024-03-08T23:04:35;9.10;99.90
51739;DHT22;37815;52.692;6.226;2024-03-08T23:09:37;9.10;99.90
51739;DHT22;37815;52.692;6.226;2024-03-08T23:14:37;9.10;99.90
51739;DHT22;37815;52.692;6.226;2024-03-08T23:19:38;9.10;99.90
51739;DHT22;37815;52.692;6.226;2024-03-08T23:24:39;9.00;99.90
51739;DHT22;37815;52.692;6.226;2024-03-08T23:29:40;9.00;99.90
51739;DHT22;37815;52.692;6.226;2024-03-08T23:34:40;9.00;99.90
51739;DHT22;37815;52.692;6.226;2024-03-08T23:39:41;9.00;99.90
51739;DHT22;37815;52.692;6.226;2024-03-08T23:44:42;9.00;99.90
51739;DHT22;37815;52.692;6.226;2024-03-08T23:49:42;9.00;99.90
51739;DHT22;37815;52.692;6.226;2024-03-08T23:54:44;9.00;99.90
51739;DHT22;37815;52.692;6.226;2024-03-08T23:59:44;8.90;99.90
